createdAt,value
2023-12-28T00:00:18.659Z,24.77
2023-12-28T00:01:18.674Z,24.80
2023-12-28T00:02:18.662Z,24.76
2023-12-28T00:03:18.768Z,24.76
2023-12-28T00:04:18.819Z,24.76
2023-12-28T00:05:18.814Z,24.79
2023-12-28T00:06:19.024Z,24.77
2023-12-28T00:07:18.955Z,24.79
2023-12-28T00:08:19.028Z,24.79
2023-12-28T00:09:19.112Z,24.76
2023-12-28T00:10:19.145Z,24.76
2023-12-28T00:11:19.214Z,24.77
2023-12-28T00:12:19.327Z,24.77
2023-12-28T00:13:19.316Z,24.77
2023-12-28T00:14:19.371Z,24.76
2023-12-28T00:15:19.462Z,24.76
2023-12-28T00:16:19.461Z,24.77
2023-12-28T00:17:19.535Z,24.76
2023-12-28T00:18:22.490Z,24.77
2023-12-28T00:19:19.763Z,24.77
2023-12-28T00:20:19.656Z,24.77
2023-12-28T00:21:19.746Z,24.76
2023-12-28T00:22:19.677Z,24.79
2023-12-28T00:23:19.693Z,24.77
2023-12-28T00:24:19.752Z,24.77
2023-12-28T00:25:19.716Z,24.76
2023-12-28T00:26:19.721Z,24.77
2023-12-28T00:27:19.760Z,24.79
2023-12-28T00:28:19.756Z,24.76
2023-12-28T00:29:19.787Z,24.77
2023-12-28T00:30:19.914Z,24.76
2023-12-28T00:31:19.941Z,24.76
2023-12-28T00:32:19.830Z,24.79
2023-12-28T00:33:19.927Z,24.76
2023-12-28T00:34:19.986Z,24.77
2023-12-28T00:35:19.924Z,24.74
2023-12-28T00:36:19.975Z,24.77
2023-12-28T00:37:19.926Z,24.76
2023-12-28T00:38:19.948Z,24.77
2023-12-28T00:39:20.006Z,24.74
2023-12-28T00:40:19.981Z,24.77
2023-12-28T00:41:19.996Z,24.74
2023-12-28T00:42:20.089Z,24.76
2023-12-28T00:43:20.037Z,24.77
2023-12-28T00:44:20.063Z,24.79
2023-12-28T00:45:20.117Z,24.77
2023-12-28T00:46:20.094Z,24.77
2023-12-28T00:47:20.095Z,24.77
2023-12-28T00:48:20.249Z,24.77
2023-12-28T00:49:20.303Z,24.77
2023-12-28T00:50:20.158Z,24.77
2023-12-28T00:51:20.213Z,24.76
2023-12-28T00:52:20.201Z,24.76
2023-12-28T00:53:20.213Z,24.79
2023-12-28T00:54:20.357Z,24.76
2023-12-28T00:55:20.329Z,24.76
2023-12-28T00:56:20.380Z,24.77
2023-12-28T00:57:20.448Z,24.77
2023-12-28T00:58:20.462Z,24.76
2023-12-28T00:59:20.512Z,24.74
2023-12-28T01:00:20.578Z,24.74
2023-12-28T01:01:20.755Z,24.76
2023-12-28T01:02:20.689Z,24.74
2023-12-28T01:03:20.811Z,24.74
2023-12-28T01:04:20.836Z,24.77
2023-12-28T01:05:20.820Z,24.72
2023-12-28T01:06:21.069Z,24.74
2023-12-28T01:07:20.949Z,24.74
2023-12-28T01:08:20.984Z,24.74
2023-12-28T01:09:21.101Z,24.74
2023-12-28T01:10:21.110Z,24.76
2023-12-28T01:11:21.136Z,24.76
2023-12-28T01:12:21.219Z,24.77
2023-12-28T01:13:21.289Z,24.76
2023-12-28T01:14:21.350Z,24.76
2023-12-28T01:15:21.441Z,24.74
2023-12-28T01:16:21.482Z,24.77
2023-12-28T01:17:21.536Z,24.74
2023-12-28T01:18:21.708Z,24.76
2023-12-28T01:19:21.740Z,24.76
2023-12-28T01:20:21.692Z,24.74
2023-12-28T01:21:21.740Z,24.76
2023-12-28T01:22:21.792Z,24.74
2023-12-28T01:23:21.829Z,24.74
2023-12-28T01:24:21.900Z,24.74
2023-12-28T01:25:21.914Z,24.74
2023-12-28T01:26:21.985Z,24.76
2023-12-28T01:27:22.048Z,24.73
2023-12-28T01:28:22.074Z,24.76
2023-12-28T01:29:22.135Z,24.74
2023-12-28T01:30:22.266Z,24.73
2023-12-28T01:31:22.305Z,24.74
2023-12-28T01:32:22.288Z,24.74
2023-12-28T01:33:22.383Z,24.74
2023-12-28T01:34:22.442Z,24.76
2023-12-28T01:35:22.441Z,24.76
2023-12-28T01:36:22.538Z,24.76
2023-12-28T01:37:22.546Z,24.76
2023-12-28T01:38:22.612Z,24.76
2023-12-28T01:39:22.722Z,24.74
2023-12-28T01:40:22.754Z,24.77
2023-12-28T01:41:22.792Z,24.73
2023-12-28T01:42:22.933Z,24.74
2023-12-28T01:43:22.914Z,24.76
2023-12-28T01:44:23.046Z,24.76
2023-12-28T01:45:23.127Z,24.74
2023-12-28T01:46:23.079Z,24.77
2023-12-28T01:47:23.145Z,24.76
2023-12-28T01:48:23.315Z,24.74
2023-12-28T01:49:23.301Z,24.73
2023-12-28T01:50:23.304Z,24.73
2023-12-28T01:51:23.383Z,24.73
2023-12-28T01:52:23.472Z,24.76
2023-12-28T01:53:23.510Z,24.74
2023-12-28T01:54:23.707Z,24.74
2023-12-28T01:55:23.668Z,24.74
2023-12-28T01:56:23.738Z,24.72
2023-12-28T01:57:23.869Z,24.76
2023-12-28T01:58:23.869Z,24.73
2023-12-28T01:59:23.944Z,24.74
2023-12-28T02:00:24.029Z,24.73
2023-12-28T02:01:24.186Z,24.73
2023-12-28T02:02:24.154Z,24.74
2023-12-28T02:03:24.260Z,24.72
2023-12-28T02:04:24.350Z,24.73
2023-12-28T02:05:24.321Z,24.74
2023-12-28T02:06:24.537Z,24.74
2023-12-28T02:07:24.479Z,24.74
2023-12-28T02:08:24.546Z,24.73
2023-12-28T02:09:24.755Z,24.76
2023-12-28T02:10:24.683Z,24.76
2023-12-28T02:11:24.723Z,24.74
2023-12-28T02:12:24.797Z,24.74
2023-12-28T02:13:24.792Z,24.76
2023-12-28T02:14:24.857Z,24.72
2023-12-28T02:15:24.986Z,24.73
2023-12-28T02:16:24.971Z,24.73
2023-12-28T02:17:25.102Z,24.73
2023-12-28T02:18:25.207Z,24.73
2023-12-28T02:19:25.205Z,24.73
2023-12-28T02:20:25.270Z,24.73
2023-12-28T02:21:25.320Z,24.72
2023-12-28T02:22:25.395Z,24.73
2023-12-28T02:23:25.449Z,24.73
2023-12-28T02:24:25.559Z,24.72
2023-12-28T02:25:25.588Z,24.73
2023-12-28T02:26:25.640Z,24.74
2023-12-28T02:27:25.723Z,24.73
2023-12-28T02:28:25.799Z,24.74
2023-12-28T02:29:25.860Z,24.73
2023-12-28T02:30:26.232Z,24.73
2023-12-28T02:31:26.338Z,24.74
2023-12-28T02:32:26.152Z,24.73
2023-12-28T02:33:26.263Z,24.76
2023-12-28T02:34:26.382Z,24.73
2023-12-28T02:35:26.324Z,24.74
2023-12-28T02:36:26.462Z,24.72
2023-12-28T02:37:26.479Z,24.73
2023-12-28T02:38:26.528Z,24.76
2023-12-28T02:39:26.610Z,24.76
2023-12-28T02:40:26.669Z,24.74
2023-12-28T02:41:26.718Z,24.74
2023-12-28T02:42:26.779Z,24.73
2023-12-28T02:43:26.790Z,24.76
2023-12-28T02:44:26.862Z,24.73
2023-12-28T02:45:27.021Z,24.73
2023-12-28T02:46:26.986Z,24.73
2023-12-28T02:47:27.101Z,24.74
2023-12-28T02:48:27.234Z,24.74
2023-12-28T02:49:27.172Z,24.72
2023-12-28T02:50:27.169Z,24.73
2023-12-28T02:51:27.331Z,24.72
2023-12-28T02:52:27.291Z,24.73
2023-12-28T02:53:27.372Z,24.76
2023-12-28T02:54:27.500Z,24.74
2023-12-28T02:55:27.527Z,24.73
2023-12-28T02:56:27.597Z,24.72
2023-12-28T02:57:27.714Z,24.73
2023-12-28T02:58:27.751Z,24.72
2023-12-28T02:59:27.807Z,24.70
2023-12-28T03:00:27.903Z,24.72
2023-12-28T03:01:28.001Z,24.72
2023-12-28T03:02:28.009Z,24.74
2023-12-28T03:03:28.253Z,24.73
2023-12-28T03:04:28.215Z,24.74
2023-12-28T03:05:28.308Z,24.73
2023-12-28T03:06:28.365Z,24.74
2023-12-28T03:07:28.386Z,24.73
2023-12-28T03:08:28.451Z,24.73
2023-12-28T03:09:28.552Z,24.73
2023-12-28T03:10:28.605Z,24.72
2023-12-28T03:11:28.651Z,24.73
2023-12-28T03:12:28.774Z,24.73
2023-12-28T03:13:28.763Z,24.73
2023-12-28T03:14:28.863Z,24.72
2023-12-28T03:15:29.000Z,24.73
2023-12-28T03:16:29.038Z,24.72
2023-12-28T03:17:29.084Z,24.72
2023-12-28T03:18:29.324Z,24.73
2023-12-28T03:19:29.419Z,24.70
2023-12-28T03:20:29.260Z,24.73
2023-12-28T03:21:29.500Z,24.72
2023-12-28T03:22:29.478Z,24.74
2023-12-28T03:23:29.621Z,24.72
2023-12-28T03:24:29.645Z,24.72
2023-12-28T03:25:29.584Z,24.73
2023-12-28T03:26:29.688Z,24.73
2023-12-28T03:27:29.767Z,24.73
2023-12-28T03:28:29.816Z,24.73
2023-12-28T03:29:29.930Z,24.73
2023-12-28T03:30:30.049Z,24.72
2023-12-28T03:31:30.200Z,24.72
2023-12-28T03:32:30.186Z,24.72
2023-12-28T03:33:30.303Z,24.72
2023-12-28T03:34:30.353Z,24.72
2023-12-28T03:35:30.362Z,24.72
2023-12-28T03:36:30.464Z,24.73
2023-12-28T03:37:30.521Z,24.72
2023-12-28T03:38:30.611Z,24.70
2023-12-28T03:39:30.711Z,24.70
2023-12-28T03:40:30.798Z,24.70
2023-12-28T03:41:30.872Z,24.73
2023-12-28T03:42:30.979Z,24.72
2023-12-28T03:43:31.006Z,24.70
2023-12-28T03:44:31.091Z,24.74
2023-12-28T03:45:31.195Z,24.70
2023-12-28T03:46:31.233Z,24.70
2023-12-28T03:47:31.351Z,24.72
2023-12-28T03:48:31.599Z,24.70
2023-12-28T03:49:31.569Z,24.72
2023-12-28T03:50:31.601Z,24.72
2023-12-28T03:51:31.715Z,24.70
2023-12-28T03:52:31.866Z,24.72
2023-12-28T03:53:31.849Z,24.72
2023-12-28T03:54:31.972Z,24.73
2023-12-28T03:55:32.061Z,24.73
2023-12-28T03:56:32.123Z,24.73
2023-12-28T03:57:32.235Z,24.70
2023-12-28T03:58:32.291Z,24.72
2023-12-28T03:59:32.380Z,24.70
2023-12-28T04:00:32.472Z,24.72
2023-12-28T04:01:32.533Z,24.70
2023-12-28T04:02:32.578Z,24.72
2023-12-28T04:03:32.671Z,24.70
2023-12-28T04:04:32.825Z,24.72
2023-12-28T04:05:32.805Z,24.72
2023-12-28T04:06:32.844Z,24.72
2023-12-28T04:07:32.904Z,24.70
2023-12-28T04:08:32.952Z,24.70
2023-12-28T04:09:33.076Z,24.72
2023-12-28T04:10:33.251Z,24.73
2023-12-28T04:11:33.191Z,24.70
2023-12-28T04:12:33.276Z,24.72
2023-12-28T04:13:33.327Z,24.70
2023-12-28T04:14:33.411Z,24.72
2023-12-28T04:15:33.564Z,24.70
2023-12-28T04:16:33.595Z,24.72
2023-12-28T04:17:33.770Z,24.73
2023-12-28T04:18:33.871Z,24.72
2023-12-28T04:19:33.889Z,24.69
2023-12-28T04:20:33.906Z,24.70
2023-12-28T04:21:34.009Z,24.70
2023-12-28T04:22:34.065Z,24.72
2023-12-28T04:23:34.131Z,24.76
2023-12-28T04:24:34.307Z,24.72
2023-12-28T04:25:34.262Z,24.70
2023-12-28T04:26:34.355Z,24.69
2023-12-28T04:27:34.457Z,24.73
2023-12-28T04:28:34.532Z,24.69
2023-12-28T04:29:34.652Z,24.72
2023-12-28T04:30:34.763Z,24.70
2023-12-28T04:31:34.942Z,24.72
2023-12-28T04:32:42.313Z,24.67
2023-12-28T04:33:42.268Z,24.66
2023-12-28T04:34:42.215Z,24.70
2023-12-28T04:35:42.166Z,24.69
2023-12-28T04:36:42.152Z,24.70
2023-12-28T04:37:42.122Z,24.69
2023-12-28T04:38:42.096Z,24.72
2023-12-28T04:39:42.117Z,24.70
2023-12-28T04:40:42.056Z,24.70
2023-12-28T04:41:42.063Z,24.70
2023-12-28T04:42:42.083Z,24.69
2023-12-28T04:43:41.997Z,24.70
2023-12-28T04:44:42.009Z,24.73
2023-12-28T04:45:42.003Z,24.72
2023-12-28T04:46:41.957Z,24.70
2023-12-28T04:47:41.988Z,24.72
2023-12-28T04:48:42.046Z,24.72
2023-12-28T04:49:42.051Z,24.70
2023-12-28T04:50:41.870Z,24.72
2023-12-28T04:51:41.894Z,24.70
2023-12-28T04:52:41.841Z,24.69
2023-12-28T04:53:41.812Z,24.69
2023-12-28T04:54:41.814Z,24.70
2023-12-28T04:55:41.779Z,24.70
2023-12-28T04:56:41.771Z,24.72
2023-12-28T04:57:41.778Z,24.69
2023-12-28T04:58:41.712Z,24.67
2023-12-28T04:59:41.766Z,24.69
2023-12-28T05:00:41.853Z,24.67
2023-12-28T05:01:41.741Z,24.69
2023-12-28T05:02:41.640Z,24.69
2023-12-28T05:03:41.710Z,24.72
2023-12-28T05:04:41.721Z,24.72
2023-12-28T05:05:41.656Z,24.69
2023-12-28T05:06:41.598Z,24.72
2023-12-28T05:07:41.553Z,24.69
2023-12-28T05:08:41.528Z,24.70
2023-12-28T05:09:41.561Z,24.67
2023-12-28T05:10:41.510Z,24.67
2023-12-28T05:11:41.531Z,24.69
2023-12-28T05:12:44.631Z,24.67
2023-12-28T05:13:41.522Z,24.67
2023-12-28T05:14:41.504Z,24.69
2023-12-28T05:15:41.464Z,24.70
2023-12-28T05:16:41.452Z,24.69
2023-12-28T05:17:41.501Z,24.70
2023-12-28T05:18:41.549Z,24.72
2023-12-28T05:19:41.445Z,24.69
2023-12-28T05:20:41.345Z,24.70
2023-12-28T05:21:41.365Z,24.70
2023-12-28T05:22:41.320Z,24.70
2023-12-28T05:23:41.274Z,24.69
2023-12-28T05:24:41.317Z,24.66
2023-12-28T05:25:41.250Z,24.69
2023-12-28T05:26:41.219Z,24.70
2023-12-28T05:27:41.289Z,24.70
2023-12-28T05:28:41.190Z,24.73
2023-12-28T05:29:41.152Z,24.69
2023-12-28T05:30:41.210Z,24.69
2023-12-28T05:31:41.256Z,24.70
2023-12-28T05:32:41.270Z,24.69
2023-12-28T05:33:41.115Z,24.69
2023-12-28T05:34:41.110Z,24.67
2023-12-28T05:35:41.010Z,24.72
2023-12-28T05:36:41.042Z,24.69
2023-12-28T05:37:40.988Z,24.67
2023-12-28T05:38:40.980Z,24.70
2023-12-28T05:39:40.995Z,24.69
2023-12-28T05:40:40.939Z,24.70
2023-12-28T05:41:40.897Z,24.72
2023-12-28T05:42:40.917Z,24.69
2023-12-28T05:43:40.882Z,24.72
2023-12-28T05:44:40.865Z,24.69
2023-12-28T05:45:40.885Z,24.70
2023-12-28T05:46:40.838Z,24.64
2023-12-28T05:47:40.920Z,24.69
2023-12-28T05:48:40.892Z,24.69
2023-12-28T05:49:40.900Z,24.67
2023-12-28T05:50:40.769Z,24.70
2023-12-28T05:51:40.836Z,24.67
2023-12-28T05:52:40.744Z,24.67
2023-12-28T05:53:40.704Z,24.67
2023-12-28T05:54:40.778Z,24.67
2023-12-28T05:55:40.666Z,24.67
2023-12-28T05:56:40.648Z,24.69
2023-12-28T05:57:40.673Z,24.69
2023-12-28T05:58:40.638Z,24.69
2023-12-28T05:59:40.611Z,24.67
2023-12-28T06:00:40.663Z,24.69
2023-12-28T06:01:40.593Z,24.69
2023-12-28T06:02:40.545Z,24.67
2023-12-28T06:03:40.638Z,24.70
2023-12-28T06:04:40.738Z,24.67
2023-12-28T06:05:40.514Z,24.69
2023-12-28T06:06:40.560Z,24.69
2023-12-28T06:07:40.487Z,24.69
2023-12-28T06:08:40.454Z,24.69
2023-12-28T06:09:40.493Z,24.69
2023-12-28T06:10:40.430Z,24.69
2023-12-28T06:11:40.438Z,24.67
2023-12-28T06:12:40.447Z,24.67
2023-12-28T06:13:40.392Z,24.66
2023-12-28T06:14:40.349Z,24.67
2023-12-28T06:15:40.480Z,24.69
2023-12-28T06:16:40.337Z,24.67
2023-12-28T06:17:40.379Z,24.67
2023-12-28T06:18:40.406Z,24.69
2023-12-28T06:19:40.370Z,24.67
2023-12-28T06:20:40.276Z,24.69
2023-12-28T06:21:40.277Z,24.69
2023-12-28T06:22:40.256Z,24.67
2023-12-28T06:23:40.222Z,24.67
2023-12-28T06:24:40.250Z,24.69
2023-12-28T06:25:40.204Z,24.67
2023-12-28T06:26:40.178Z,24.67
2023-12-28T06:27:40.230Z,24.69
2023-12-28T06:28:40.145Z,24.70
2023-12-28T06:29:40.133Z,24.66
2023-12-28T06:30:40.207Z,24.64
2023-12-28T06:31:40.572Z,24.70
2023-12-28T06:32:40.139Z,24.69
2023-12-28T06:33:40.305Z,24.67
2023-12-28T06:34:40.155Z,24.67
2023-12-28T06:35:40.038Z,24.69
2023-12-28T06:36:40.157Z,24.67
2023-12-28T06:37:39.997Z,24.69
2023-12-28T06:38:39.994Z,24.69
2023-12-28T06:39:40.060Z,24.69
2023-12-28T06:40:40.029Z,24.69
2023-12-28T06:41:40.050Z,24.67
2023-12-28T06:42:40.104Z,24.67
2023-12-28T06:43:40.065Z,24.66
2023-12-28T06:44:40.061Z,24.67
2023-12-28T06:45:40.171Z,24.67
2023-12-28T06:46:40.093Z,24.64
2023-12-28T06:47:40.127Z,24.66
2023-12-28T06:48:40.222Z,24.64
2023-12-28T06:49:40.351Z,24.67
2023-12-28T06:50:40.128Z,24.66
2023-12-28T06:51:40.173Z,24.67
2023-12-28T06:52:40.147Z,24.69
2023-12-28T06:53:40.147Z,24.67
2023-12-28T06:54:40.191Z,24.66
2023-12-28T06:55:40.170Z,24.66
2023-12-28T06:56:40.186Z,24.66
2023-12-28T06:57:40.234Z,24.67
2023-12-28T06:58:40.253Z,24.66
2023-12-28T06:59:40.219Z,24.64
2023-12-28T07:00:40.331Z,24.66
2023-12-28T07:01:40.237Z,24.67
2023-12-28T07:02:40.276Z,24.66
2023-12-28T07:03:40.352Z,24.66
2023-12-28T07:04:40.303Z,24.67
2023-12-28T07:05:40.350Z,24.67
2023-12-28T07:06:40.370Z,24.67
2023-12-28T07:07:40.285Z,24.66
2023-12-28T07:08:40.305Z,24.67
2023-12-28T07:09:40.349Z,24.67
2023-12-28T07:10:40.321Z,24.67
2023-12-28T07:11:40.306Z,24.67
2023-12-28T07:12:40.359Z,24.69
2023-12-28T07:13:40.305Z,24.66
2023-12-28T07:14:40.324Z,24.67
2023-12-28T07:15:40.441Z,24.69
2023-12-28T07:16:40.333Z,24.67
2023-12-28T07:17:40.466Z,24.67
2023-12-28T07:18:40.503Z,24.66
2023-12-28T07:19:40.483Z,24.67
2023-12-28T07:20:40.391Z,24.63
2023-12-28T07:21:40.391Z,24.67
2023-12-28T07:22:40.383Z,24.66
2023-12-28T07:23:40.382Z,24.67
2023-12-28T07:24:40.463Z,24.66
2023-12-28T07:25:40.422Z,24.66
2023-12-28T07:26:40.418Z,24.69
2023-12-28T07:27:40.459Z,24.67
2023-12-28T07:28:40.441Z,24.67
2023-12-28T07:29:40.453Z,24.66
2023-12-28T07:30:40.497Z,24.67
2023-12-28T07:31:40.517Z,24.66
2023-12-28T07:32:40.488Z,24.64
2023-12-28T07:33:40.576Z,24.66
2023-12-28T07:34:40.634Z,24.66
2023-12-28T07:35:40.575Z,24.66
2023-12-28T07:36:40.540Z,24.66
2023-12-28T07:37:40.513Z,24.66
2023-12-28T07:38:40.530Z,24.64
2023-12-28T07:39:40.570Z,24.64
2023-12-28T07:40:40.553Z,24.67
2023-12-28T07:41:40.566Z,24.69
2023-12-28T07:42:40.580Z,24.69
2023-12-28T07:43:40.582Z,24.66
2023-12-28T07:44:40.596Z,24.66
2023-12-28T07:45:40.650Z,24.69
2023-12-28T07:46:40.669Z,24.69
2023-12-28T07:47:40.697Z,24.69
2023-12-28T07:48:40.696Z,24.67
2023-12-28T07:49:40.748Z,24.67
2023-12-28T07:50:40.652Z,24.67
2023-12-28T07:51:40.719Z,24.70
2023-12-28T07:52:40.702Z,24.67
2023-12-28T07:53:40.716Z,24.67
2023-12-28T07:54:40.827Z,24.69
2023-12-28T07:55:40.714Z,24.67
2023-12-28T07:56:40.728Z,24.69
2023-12-28T07:57:40.757Z,24.67
2023-12-28T07:58:40.732Z,24.67
2023-12-28T07:59:40.747Z,24.70
2023-12-28T08:00:40.959Z,24.69
2023-12-28T08:01:40.844Z,24.69
2023-12-28T08:02:40.782Z,24.69
2023-12-28T08:03:40.831Z,24.69
2023-12-28T08:04:40.871Z,24.69
2023-12-28T08:05:40.865Z,24.70
2023-12-28T08:06:40.908Z,24.70
2023-12-28T08:07:40.803Z,24.70
2023-12-28T08:08:40.811Z,24.72
2023-12-28T08:09:40.873Z,24.70
2023-12-28T08:10:40.824Z,24.70
2023-12-28T08:11:40.830Z,24.70
2023-12-28T08:12:40.842Z,24.72
2023-12-28T08:13:40.810Z,24.70
2023-12-28T08:14:40.811Z,24.74
2023-12-28T08:15:40.975Z,24.72
2023-12-28T08:16:40.844Z,24.73
2023-12-28T08:17:40.852Z,24.74
2023-12-28T08:18:40.923Z,24.72
2023-12-28T08:19:40.900Z,24.73
2023-12-28T08:20:40.877Z,24.72
2023-12-28T08:21:40.868Z,24.70
2023-12-28T08:22:40.871Z,24.73
2023-12-28T08:23:40.893Z,24.73
2023-12-28T08:24:40.910Z,24.76
2023-12-28T08:25:40.926Z,24.73
2023-12-28T08:26:40.890Z,24.74
2023-12-28T08:27:40.932Z,24.74
2023-12-28T08:28:40.932Z,24.74
2023-12-28T08:29:40.925Z,24.74
2023-12-28T08:30:41.038Z,24.77
2023-12-28T08:31:42.190Z,24.77
2023-12-28T08:32:41.046Z,24.74
2023-12-28T08:33:41.079Z,24.77
2023-12-28T08:34:41.127Z,24.74
2023-12-28T08:35:41.061Z,24.76
2023-12-28T08:36:41.006Z,24.77
2023-12-28T08:37:40.989Z,24.79
2023-12-28T08:38:40.980Z,24.76
2023-12-28T08:39:41.058Z,24.77
2023-12-28T08:40:41.003Z,24.76
2023-12-28T08:41:41.009Z,24.77
2023-12-28T08:42:41.086Z,24.77
2023-12-28T08:43:41.013Z,24.77
2023-12-28T08:44:41.023Z,24.80
2023-12-28T08:45:41.055Z,24.79
2023-12-28T08:46:41.022Z,24.79
2023-12-28T08:47:41.040Z,24.79
2023-12-28T08:48:41.203Z,24.79
2023-12-28T08:49:41.109Z,24.76
2023-12-28T08:50:41.041Z,24.80
2023-12-28T08:51:43.630Z,24.80
2023-12-28T08:54:07.352Z,24.79
2023-12-28T08:54:45.397Z,24.79
2023-12-28T08:55:45.347Z,24.82
2023-12-28T08:56:46.540Z,24.80
2023-12-28T08:57:45.396Z,24.79
2023-12-28T08:58:45.294Z,24.79
2023-12-28T08:59:45.289Z,24.80
2023-12-28T09:00:45.315Z,24.79
2023-12-28T09:01:45.292Z,24.76
2023-12-28T09:02:45.339Z,24.74
2023-12-28T09:03:45.317Z,24.82
2023-12-28T09:04:45.204Z,24.79
2023-12-28T09:05:45.168Z,24.79
2023-12-28T09:06:45.220Z,24.74
2023-12-28T09:07:45.167Z,24.82
2023-12-28T09:08:45.098Z,24.80
2023-12-28T09:09:45.143Z,24.79
2023-12-28T09:10:45.069Z,24.79
2023-12-28T09:11:45.035Z,24.80
2023-12-28T09:12:45.168Z,24.82
2023-12-28T09:13:45.001Z,24.82
2023-12-28T09:14:44.972Z,24.83
2023-12-28T09:15:45.005Z,24.83
2023-12-28T09:16:44.923Z,24.82
2023-12-28T09:17:45.017Z,24.82
2023-12-28T09:18:45.031Z,24.83
2023-12-28T09:19:44.948Z,24.86
2023-12-28T09:20:44.830Z,24.82
2023-12-28T09:21:44.885Z,24.84
2023-12-28T09:22:44.847Z,24.86
2023-12-28T09:23:44.822Z,24.83
2023-12-28T09:24:44.891Z,24.84
2023-12-28T09:25:44.811Z,24.87
2023-12-28T09:26:44.810Z,24.86
2023-12-28T09:27:44.824Z,24.86
2023-12-28T09:28:44.838Z,24.86
2023-12-28T09:29:44.835Z,24.87
2023-12-28T09:30:44.855Z,24.89
2023-12-28T09:31:44.894Z,24.86
2023-12-28T09:32:44.793Z,24.86
2023-12-28T09:33:44.938Z,24.87
2023-12-28T09:34:44.827Z,24.87
2023-12-28T09:35:47.727Z,24.89
2023-12-28T09:36:44.784Z,24.87
2023-12-28T09:37:44.766Z,24.87
2023-12-28T09:38:44.725Z,24.86
2023-12-28T09:39:45.079Z,24.84
2023-12-28T09:40:44.702Z,24.86
2023-12-28T09:41:44.686Z,24.87
2023-12-28T09:42:44.686Z,24.86
2023-12-28T09:43:44.641Z,24.89
2023-12-28T09:44:44.637Z,24.86
2023-12-28T09:45:44.643Z,24.87
2023-12-28T09:46:44.602Z,24.89
2023-12-28T09:47:44.603Z,24.87
2023-12-28T09:48:44.727Z,24.89
2023-12-28T09:49:44.667Z,24.89
2023-12-28T09:50:44.540Z,24.87
2023-12-28T09:51:44.591Z,24.89
2023-12-28T09:52:44.505Z,24.90
2023-12-28T09:53:44.483Z,24.90
2023-12-28T09:54:44.564Z,24.91
2023-12-28T09:55:44.469Z,24.90
2023-12-28T09:56:44.473Z,24.90
2023-12-28T09:57:44.468Z,24.90
2023-12-28T09:58:44.422Z,24.89
2023-12-28T09:59:44.406Z,24.89
2023-12-28T10:00:44.415Z,24.90
2023-12-28T10:01:44.380Z,24.89
2023-12-28T10:02:44.367Z,24.90
2023-12-28T10:03:44.406Z,24.94
2023-12-28T10:04:44.399Z,24.90
2023-12-28T10:05:44.402Z,24.93
2023-12-28T10:06:44.350Z,24.93
2023-12-28T10:07:45.772Z,24.91
2023-12-28T10:08:44.437Z,24.93
2023-12-28T10:09:44.414Z,24.91
2023-12-28T10:10:44.404Z,24.93
2023-12-28T10:11:44.397Z,24.90
2023-12-28T10:12:44.375Z,24.91
2023-12-28T10:13:44.363Z,24.94
2023-12-28T10:14:44.341Z,24.94
2023-12-28T10:15:44.373Z,24.94
2023-12-28T10:16:44.341Z,24.94
2023-12-28T10:17:44.355Z,24.95
2023-12-28T10:18:44.412Z,24.95
2023-12-28T10:19:44.476Z,24.95
2023-12-28T10:20:44.321Z,24.94
2023-12-28T10:21:44.325Z,24.91
2023-12-28T10:22:44.282Z,24.95
2023-12-28T10:23:44.298Z,24.95
2023-12-28T10:24:44.347Z,24.97
2023-12-28T10:25:44.286Z,24.94
2023-12-28T10:26:44.253Z,24.95
2023-12-28T10:27:44.323Z,24.95
2023-12-28T10:28:44.230Z,24.95
2023-12-28T10:29:44.232Z,24.95
2023-12-28T10:30:44.354Z,24.95
2023-12-28T10:31:44.305Z,24.97
2023-12-28T10:32:44.354Z,24.95
2023-12-28T10:33:44.400Z,24.94
2023-12-28T10:34:44.215Z,24.95
2023-12-28T10:35:44.165Z,24.94
2023-12-28T10:36:44.185Z,24.98
2023-12-28T10:37:45.641Z,24.95
2023-12-28T10:38:44.138Z,24.97
2023-12-28T10:39:44.154Z,24.97
2023-12-28T10:40:44.129Z,24.95
2023-12-28T10:41:44.097Z,25.00
2023-12-28T10:42:44.165Z,24.98
2023-12-28T10:43:44.075Z,24.95
2023-12-28T10:44:44.077Z,24.98
2023-12-28T10:45:44.206Z,24.97
2023-12-28T10:46:44.074Z,24.95
2023-12-28T10:47:44.109Z,24.98
2023-12-28T10:48:44.151Z,25.00
2023-12-28T10:49:44.161Z,25.00
2023-12-28T10:50:44.067Z,24.97
2023-12-28T10:51:44.068Z,24.98
2023-12-28T10:52:43.979Z,25.00
2023-12-28T10:53:43.984Z,24.98
2023-12-28T10:54:43.981Z,25.00
2023-12-28T10:55:43.948Z,25.01
2023-12-28T10:56:44.036Z,25.00
2023-12-28T10:57:43.973Z,24.98
2023-12-28T10:58:43.922Z,25.01
2023-12-28T10:59:43.913Z,25.01
2023-12-28T11:00:43.948Z,24.97
2023-12-28T11:01:43.896Z,24.98
2023-12-28T11:02:43.866Z,25.00
2023-12-28T11:03:43.876Z,25.01
2023-12-28T11:04:44.007Z,25.00
2023-12-28T11:05:43.902Z,24.98
2023-12-28T11:06:43.880Z,25.00
2023-12-28T11:07:43.880Z,24.98
2023-12-28T11:08:43.848Z,25.03
2023-12-28T11:09:43.918Z,25.00
2023-12-28T11:10:43.780Z,25.00
2023-12-28T11:11:43.843Z,25.00
2023-12-28T11:12:43.912Z,25.01
2023-12-28T11:13:43.732Z,25.03
2023-12-28T11:14:43.791Z,25.03
2023-12-28T11:15:43.820Z,25.03
2023-12-28T11:16:43.713Z,25.04
2023-12-28T11:17:43.776Z,25.03
2023-12-28T11:18:43.721Z,25.04
2023-12-28T11:19:43.657Z,25.01
2023-12-28T11:20:43.645Z,25.03
2023-12-28T11:21:43.801Z,25.01
2023-12-28T11:22:43.584Z,25.03
2023-12-28T11:23:43.573Z,25.03
2023-12-28T11:24:43.588Z,25.03
2023-12-28T11:25:43.556Z,25.03
2023-12-28T11:26:43.510Z,25.04
2023-12-28T11:27:43.559Z,25.03
2023-12-28T11:28:43.500Z,25.04
2023-12-28T11:29:43.478Z,25.04
2023-12-28T11:30:43.535Z,25.04
2023-12-28T11:31:43.478Z,25.04
2023-12-28T11:32:43.528Z,25.04
2023-12-28T11:33:43.573Z,25.03
2023-12-28T11:34:43.597Z,25.06
2023-12-28T11:35:43.414Z,25.03
2023-12-28T11:36:43.403Z,25.06
2023-12-28T11:37:43.355Z,25.06
2023-12-28T11:38:43.345Z,25.03
2023-12-28T11:39:43.377Z,25.04
2023-12-28T11:40:44.818Z,25.04
2023-12-28T11:41:43.407Z,25.04
2023-12-28T11:42:43.478Z,25.04
2023-12-28T11:43:43.401Z,25.04
2023-12-28T11:44:43.376Z,25.03
2023-12-28T11:45:43.510Z,25.04
2023-12-28T11:46:45.445Z,25.03
2023-12-28T11:47:43.489Z,25.03
2023-12-28T11:48:43.521Z,25.06
2023-12-28T11:49:43.543Z,25.06
2023-12-28T11:50:43.375Z,25.03
2023-12-28T11:51:43.369Z,25.06
2023-12-28T11:52:45.507Z,25.06
2023-12-28T11:53:43.383Z,25.01
2023-12-28T11:54:43.387Z,25.03
2023-12-28T11:55:43.385Z,25.03
2023-12-28T11:56:43.387Z,25.03
2023-12-28T11:57:43.537Z,25.04
2023-12-28T11:58:43.354Z,25.03
2023-12-28T11:59:43.435Z,25.04
2023-12-28T12:00:43.505Z,25.04
2023-12-28T12:01:43.510Z,25.03
2023-12-28T12:02:43.385Z,25.04
2023-12-28T12:03:43.442Z,25.06
2023-12-28T12:04:43.419Z,25.04
2023-12-28T12:05:43.368Z,25.04
2023-12-28T12:06:43.388Z,25.07
2023-12-28T12:07:43.360Z,25.07
2023-12-28T12:08:43.421Z,25.03
2023-12-28T12:09:43.367Z,25.03
2023-12-28T12:10:43.311Z,25.04
2023-12-28T12:11:43.304Z,25.06
2023-12-28T12:12:43.309Z,25.07
2023-12-28T12:13:43.288Z,25.06
2023-12-28T12:14:43.288Z,25.06
2023-12-28T12:15:43.281Z,25.04
2023-12-28T12:16:43.235Z,25.03
2023-12-28T12:17:43.279Z,25.06
2023-12-28T12:18:43.313Z,25.06
2023-12-28T12:19:43.376Z,25.06
2023-12-28T12:20:43.261Z,25.06
2023-12-28T12:21:43.189Z,25.06
2023-12-28T12:22:43.145Z,25.07
2023-12-28T12:23:43.163Z,25.07
2023-12-28T12:24:43.224Z,25.06
2023-12-28T12:25:43.176Z,25.07
2023-12-28T12:26:43.160Z,25.04
2023-12-28T12:27:43.232Z,25.06
2023-12-28T12:28:44.631Z,25.07
2023-12-28T12:29:43.176Z,25.07
2023-12-28T12:30:43.186Z,25.06
2023-12-28T12:31:43.206Z,25.06
2023-12-28T12:32:43.201Z,25.06
2023-12-28T12:33:43.147Z,25.07
2023-12-28T12:34:43.130Z,25.06
2023-12-28T12:35:43.060Z,25.07
2023-12-28T12:36:43.054Z,25.06
2023-12-28T12:37:43.033Z,25.07
2023-12-28T12:38:43.033Z,25.06
2023-12-28T12:39:43.034Z,25.06
2023-12-28T12:40:42.984Z,25.07
2023-12-28T12:41:42.981Z,25.04
2023-12-28T12:42:43.014Z,25.06
2023-12-28T12:43:42.950Z,25.09
2023-12-28T12:44:43.014Z,25.09
2023-12-28T12:45:43.204Z,25.07
2023-12-28T12:46:42.874Z,25.06
2023-12-28T12:47:42.940Z,25.06
2023-12-28T12:48:43.018Z,25.06
2023-12-28T12:49:42.896Z,25.04
2023-12-28T12:50:42.822Z,25.06
2023-12-28T12:51:42.844Z,25.04
2023-12-28T12:52:42.809Z,25.04
2023-12-28T12:53:42.794Z,25.04